Historique des mesures à Cassis (13260), France
Quotidien Résumé Mai 26, 2018 Unités:  Métrique    US   Métrique/US
« Précédent (Jour)
Suivant (Jour) »
Quotidien Hebdomadaire Mensuel Annuel Période au choix
  Maximum: Minimum: Moyenne:
Température: TemperatureC °C 18.3 °C 21.3 °C
Point de rosée: DewpointC °C 12.5 °C 14.4 °C
Humidité: Humidity % 52 % 62 %
Vitesse du vent: 0 km/h 0 km/h 2.9 km/h
Rafales: 0 km/h - -
Vent:- - SSW
Pression: PressurehPa hPa 1012.8 hPa -
Précipitations: 0.0 mm    
Historical Graphs
 
 
Mesures pour : Mai 26, 2018
Heure Temperature Point de rosée Pression Vent Vitesse du vent Rafales Humidité Pluie (par heure) Conditions
TemperatureC °C DewpointC °C PressurehPa hPa Calm     Humidity % HourlyPrecipMM mm SoftwareType W/m2
00:10 19.8 °C 15.3 °C 1013.1 hPa WNW 4.7 km/h 4.7 km/h 75 % 0.0 mm open2300-1.11 W/m2
01:10 19.5 °C 14.6 °C 1013.4 hPa NNW 4.7 km/h 5.1 km/h 73 % 0.0 mm open2300-1.11 W/m2
02:11 18.9 °C 13.9 °C 1013.1 hPa Calm   2.3 km/h 73 % 0.0 mm open2300-1.11 W/m2
03:12 19.3 °C 13.9 °C 1012.8 hPa Calm     71 % 0.0 mm open2300-1.11 W/m2
04:11 19.2 °C 13.1 °C 1012.8 hPa Calm   3.4 km/h 68 % 0.0 mm open2300-1.11 W/m2
05:11 18.8 °C 12.8 °C 1013.4 hPa NW 5.1 km/h 5.1 km/h 68 % 0.0 mm open2300-1.11 W/m2
06:11 18.3 °C 12.5 °C 1014.4 hPa Calm     69 % 0.0 mm open2300-1.11 W/m2
07:11 18.4 °C 13.3 °C 1015.1 hPa Calm     72 % 0.0 mm open2300-1.11 W/m2
08:11 19.3 °C 14.6 °C 1015.5 hPa Calm   2.3 km/h 74 % 0.0 mm open2300-1.11 W/m2
09:11 20.6 °C 14.9 °C 1014.4 hPa NNW 5.6 km/h 5.6 km/h 70 % 0.0 mm open2300-1.11 W/m2
10:11 21.3 °C 14.9 °C 1014.1 hPa Calm   5.6 km/h 67 % 0.0 mm open2300-1.11 W/m2
11:11 22.9 °C 15.2 °C 1013.4 hPa Calm   3.4 km/h 62 % 0.0 mm open2300-1.11 W/m2
12:11 24.8 °C 17.0 °C 1013.8 hPa SSW 5.6 km/h 9.8 km/h 62 % 0.0 mm open2300-1.11 W/m2
13:11 23.9 °C 17.4 °C 1014.1 hPa ESE 4.7 km/h 5.1 km/h 67 % 0.0 mm open2300-1.11 W/m2
14:11 24.5 °C 18.2 °C 1013.8 hPa Calm   2.3 km/h 68 % 0.0 mm open2300-1.11 W/m2
15:11 24.8 °C 18.2 °C 1013.4 hPa SSW 6.4 km/h 6.4 km/h 67 % 0.0 mm open2300-1.11 W/m2
16:11 26.8 °C 18.1 °C 1012.8 hPa ESE 9.3 km/h 12.7 km/h 59 % 0.0 mm open2300-1.11 W/m2
17:11 26.9 °C 17.1 °C 1012.8 hPa SE 4.2 km/h 11.6 km/h 55 % 0.0 mm open2300-1.11 W/m2
18:11 26.8 °C 16.4 °C 1012.8 hPa South 5.6 km/h 16.3 km/h 53 % 0.0 mm open2300-1.11 W/m2
19:11 25.0 °C 16.1 °C 1012.8 hPa West 7.6 km/h 7.6 km/h 58 % 0.0 mm open2300-1.11 W/m2
20:11 24.3 °C 13.8 °C 1012.8 hPa SE 4.2 km/h 8 km/h 52 % 0.0 mm open2300-1.11 W/m2
21:11 23.6 °C 13.7 °C 1012.8 hPa Calm   6.9 km/h 54 % 0.0 mm open2300-1.11 W/m2
22:10 22.7 °C 13.4 °C 1013.4 hPa Calm     56 % 0.0 mm open2300-1.11 W/m2
23:10 22.9 °C 12.8 °C 1013.4 hPa ESE 5.1 km/h 5.1 km/h 53 % 0.0 mm open2300-1.11 W/m2
Observations météo à CASSIS
WU-History script by Weather Underground - 1 mb